首页
METAR-TAF:

METAR-TAF

机场 :

瓦加杜古國際機場

瓦加杜古, 布吉納法索

纬度: 12-21N, 经度: 001-31W, 海拔: 316米

当前天气观测

该预报发布于28分钟前的08:00 UTC
风速6节,风向西
温度 27°C
湿度 79%
气压 1015 hPa
能见度10公里或以上
少量云层高于2000英尺

METAR: DFFD 200800Z 26006KT 9999 FEW020 27/23 Q1015 NOSIG

时间: 08:28 (08:28 UTC)

预报

该预报发布于3小时和28分钟前的05:00 UTC
预报有效从20日的 06点(UTC)到 21日的 12点(UTC)
风速8节,风向西转西南
能见度10公里或以上
散云层高于2000英尺
短暂存在
从 20日的 14点(UTC)到 20日的 24点(UTC)
能見度: 4000
散云层高于2000英尺
散云层高于3300英尺, 积雨云.
雷暴, 雨

TAF: DFFD 200500Z 2006/2112 24008KT 9999 SCT020 TEMPO 2014/2024 4000 TSRA SCT020 SCT033CB

超过4000个机场的气象观测和天气预报(METAR&TAF报告)。

可查询的气象台以黄色和红色小点在地图上表示。

将鼠标移到小点上方,可查看气象台名称。

然后点击查看天气观测和预报。

如需切换地图:点击带黑十字的绿色按钮放大地图;点击带横线的绿色按钮缩小地图;或者点击绿色箭头查看邻近地区的地图。


METAR-TAF: